Khargon Govt. Airstrip

IN-0060 · 中央邦, 印度

使用的METAR站距离机场105 km。
罗盘
风向 的 风向 250° Khargon Govt. Airstrip 24/69
风: 3 kt, 1 beaufort

3 kt

1 kt
改变
0 ft 2.000 4.000 6.000 8.000 10.000
Cloud Cloud
FEW 1.000
Cloud Cloud Cloud Cloud
SCT 2.000
Cloud Cloud Cloud Cloud Cloud Cloud
BKN 10.000
METAR VAID 141400Z 25003KT 4000 -RA FEW010 SCT020 BKN100 25/23 Q1002 TEMPO 3000 RA

METAR Khargon Govt. Airstrip - IN-0060

Khargon Govt. Airstrip是,印度中的小机场。 该机场位于纬度21,81000和经度75,55466。 该机场有一条跑道: 24/69. 这个机场没有ICAO代码,我们使用IN-0060作为参考。 机场在Mumbai FIR中。

该航空气象观测是针对Devi Ahilyabai Holkar Airport在2024年7月14日 19:30, 当地时间进行的。

机场观察

风向为250°,速度为3 kt。

可见度为4 km。

有几云在1.000 ft的高度, 疏云,零星散落的云朵在2.000 ft的高度 和 碎云在10.000 ft的高度。 破损或更高的上限为10.000 ft。

当前天气为光 雨。 温度和风寒是25 °C。 露点为23 °C,相对湿度为89%。 海平面上的气压为1002 hPa (QNH)。

发展趋势

  • 暂时的

    可变方向的风很小或没有。 可见性变为3 km。 重大天气:雨。

白天

今天,太阳从05:53升起,在19:14降落。 这适用于Khargon Govt. Airstrip,世界夏令时可能有所不同。 当地时间与世界标准时间之间的时差为+5 小时 30 分钟。 夏令时目前正在进行中。

公司介绍

我们没有关于这个机场的公司信息。

体会

到Vliegles.nl去找飞行课程,跳伞和其他飞行体验。 浏览页面,了解Khargon Govt. Airstrip附近所有可用的活动。 你也可以使用搜索功能来寻找你所在地附近的特定飞行课程、跳伞或其他飞行体验。

跑道

Id 标题 侧风 逆风 侧风 %
24/69 264°-084° 3 kt 24 %

逆风成分最大的方向会被突出显示,并用于横风计算。 这并不一定意味着这个方向在使用。

乌云

1.000 ft FEW 几云
2.000 ft SCT 疏云,零星散落的云朵
10.000 ft BKN 碎云

温度 & 天气

天气 光 雨
温度 25 °C
露点 23 °C
相对湿度 89%
Kp-index 1 (0-9)

白天

日出
05:50 (9:37)
中午
12:32
日落
19:14

小工具

你想在你的网站上有一个关于Khargon Govt. Airstrip的当前航空天气(METAR)的小部件吗?

显示HTML代码
报告变更